createdAt,value
2022-08-07T00:02:36.454Z,17.60
2022-08-07T00:04:34.989Z,17.60
2022-08-07T00:07:09.486Z,17.40
2022-08-07T00:09:40.591Z,17.30
2022-08-07T00:12:21.327Z,17.20
2022-08-07T00:14:52.236Z,17.10
2022-08-07T00:17:23.155Z,17.20
2022-08-07T00:20:01.040Z,17.20
2022-08-07T00:22:35.389Z,17.30
2022-08-07T00:25:16.454Z,17.20
2022-08-07T00:27:52.995Z,17.20
2022-08-07T00:30:28.622Z,17.10
2022-08-07T00:33:01.091Z,17.10
2022-08-07T00:35:33.700Z,16.90
2022-08-07T00:38:07.632Z,16.80
2022-08-07T00:40:40.479Z,16.70
2022-08-07T00:44:01.468Z,16.80
2022-08-07T00:46:04.532Z,16.70
2022-08-07T00:48:42.226Z,16.60
2022-08-07T00:51:14.433Z,16.60
2022-08-07T00:53:50.530Z,16.60
2022-08-07T00:56:30.069Z,16.50
2022-08-07T00:59:02.773Z,16.40
2022-08-07T01:01:44.086Z,16.40
2022-08-07T01:04:21.691Z,16.50
2022-08-07T01:06:56.695Z,16.60
2022-08-07T01:10:04.608Z,16.60
2022-08-07T01:12:30.288Z,16.50
2022-08-07T01:15:03.868Z,16.30
2022-08-07T01:17:35.820Z,16.30
2022-08-07T01:20:16.643Z,16.20
2022-08-07T01:23:00.446Z,16.20
2022-08-07T01:25:55.594Z,16.20
2022-08-07T01:28:27.299Z,16.20
2022-08-07T01:31:03.082Z,16.20
2022-08-07T01:33:56.021Z,16.30
2022-08-07T01:36:33.593Z,16.20
2022-08-07T01:39:10.125Z,16.20
2022-08-07T01:42:06.130Z,16.10
2022-08-07T01:44:36.947Z,16.10
2022-08-07T01:47:14.353Z,16.10
2022-08-07T01:50:00.712Z,16.10
2022-08-07T01:52:35.470Z,16.20
2022-08-07T01:55:10.510Z,16.10
2022-08-07T01:58:05.817Z,16.00
2022-08-07T02:01:10.056Z,15.90
2022-08-07T02:04:00.102Z,16.00
2022-08-07T02:06:34.466Z,16.00
2022-08-07T02:09:08.280Z,16.00
2022-08-07T02:12:02.889Z,15.90
2022-08-07T02:14:40.791Z,15.90
2022-08-07T02:17:24.679Z,15.80
2022-08-07T02:20:09.730Z,15.90
2022-08-07T02:22:54.862Z,15.80
2022-08-07T02:25:32.214Z,15.80
2022-08-07T02:28:25.484Z,15.70
2022-08-07T02:31:10.238Z,15.60
2022-08-07T02:34:03.326Z,15.50
2022-08-07T02:36:45.872Z,15.40
2022-08-07T02:39:43.290Z,15.50
2022-08-07T02:42:10.264Z,15.40
2022-08-07T02:44:51.928Z,15.40
2022-08-07T02:47:45.569Z,15.50
2022-08-07T02:50:14.675Z,15.60
2022-08-07T02:53:01.020Z,15.50
2022-08-07T02:56:03.235Z,15.50
2022-08-07T02:58:33.293Z,15.50
2022-08-07T03:01:05.555Z,15.50
2022-08-07T03:03:50.842Z,15.40
2022-08-07T03:06:32.033Z,15.60
2022-08-07T03:09:11.023Z,15.50
2022-08-07T03:11:51.836Z,15.50
2022-08-07T03:14:28.706Z,15.50
2022-08-07T03:17:00.105Z,15.50
2022-08-07T03:19:36.870Z,15.40
2022-08-07T03:22:08.477Z,15.50
2022-08-07T03:24:50.647Z,15.60
2022-08-07T03:27:30.399Z,15.40
2022-08-07T03:30:03.868Z,15.60
2022-08-07T03:32:39.588Z,15.50
2022-08-07T03:35:26.717Z,15.40
2022-08-07T03:38:04.794Z,15.30
2022-08-07T03:40:36.906Z,15.30
2022-08-07T03:43:13.713Z,15.40
2022-08-07T03:45:47.605Z,15.20
2022-08-07T03:48:19.722Z,15.20
2022-08-07T03:50:55.968Z,15.10
2022-08-07T03:54:00.564Z,15.10
2022-08-07T03:56:33.027Z,15.10
2022-08-07T03:59:09.534Z,15.10
2022-08-07T04:01:46.244Z,15.10
2022-08-07T04:04:21.434Z,15.10
2022-08-07T04:06:53.153Z,15.10
2022-08-07T04:09:25.326Z,14.90
2022-08-07T04:12:26.885Z,14.90
2022-08-07T04:15:01.110Z,15.00
2022-08-07T04:18:30.934Z,15.00
2022-08-07T04:20:23.476Z,15.00
2022-08-07T04:23:01.497Z,14.80
2022-08-07T04:25:38.988Z,14.70
2022-08-07T04:28:13.505Z,14.70
2022-08-07T04:30:56.941Z,14.80
2022-08-07T04:33:30.519Z,14.90
2022-08-07T04:36:02.516Z,14.80
2022-08-07T04:38:38.039Z,14.90
2022-08-07T04:41:09.752Z,15.00
2022-08-07T04:44:12.215Z,15.10
2022-08-07T04:47:09.462Z,15.20
2022-08-07T04:49:57.830Z,15.30
2022-08-07T04:53:00.162Z,15.30
2022-08-07T04:58:12.865Z,15.50
2022-08-07T04:59:17.759Z,15.60
2022-08-07T05:02:28.884Z,15.80
2022-08-07T05:05:53.206Z,16.00
2022-08-07T05:08:59.741Z,16.10
2022-08-07T05:11:58.752Z,16.20
2022-08-07T05:14:53.825Z,16.40
2022-08-07T05:17:50.861Z,16.50
2022-08-07T05:20:27.571Z,16.50
2022-08-07T05:23:05.871Z,16.80
2022-08-07T05:26:11.523Z,16.90
2022-08-07T05:28:41.148Z,16.90
2022-08-07T05:31:23.325Z,16.90
2022-08-07T05:34:04.333Z,17.00
2022-08-07T05:36:39.772Z,17.00
2022-08-07T05:40:05.517Z,17.10
2022-08-07T05:42:08.870Z,17.10
2022-08-07T05:44:46.466Z,17.20
2022-08-07T05:47:38.539Z,17.20
2022-08-07T05:50:16.514Z,17.10
2022-08-07T05:52:47.451Z,17.20
2022-08-07T05:55:18.496Z,17.20
2022-08-07T05:57:50.770Z,17.30
2022-08-07T06:00:23.387Z,17.40
2022-08-07T06:02:58.154Z,17.20
2022-08-07T06:05:32.825Z,17.30
2022-08-07T06:08:29.733Z,17.50
2022-08-07T06:10:57.759Z,17.60
2022-08-07T06:13:31.630Z,17.70
2022-08-07T06:16:24.225Z,17.70
2022-08-07T06:19:01.758Z,17.80
2022-08-07T06:22:16.733Z,17.90
2022-08-07T06:24:46.034Z,17.90
2022-08-07T06:27:59.852Z,17.80
2022-08-07T06:30:24.411Z,18.00
2022-08-07T06:33:10.062Z,18.20
2022-08-07T06:36:12.043Z,18.30
2022-08-07T06:38:39.437Z,18.40
2022-08-07T06:42:01.529Z,18.60
2022-08-07T06:44:39.674Z,18.60
2022-08-07T06:47:15.403Z,18.80
2022-08-07T06:49:50.906Z,18.80
2022-08-07T06:52:31.868Z,18.90
2022-08-07T06:55:59.845Z,19.00
2022-08-07T06:58:27.481Z,19.20
2022-08-07T07:00:59.616Z,19.30
2022-08-07T07:03:47.977Z,19.40
2022-08-07T07:06:23.753Z,19.50
2022-08-07T07:08:58.055Z,19.70
2022-08-07T07:12:08.218Z,19.80
2022-08-07T07:14:25.372Z,19.90
2022-08-07T07:17:04.907Z,19.90
2022-08-07T07:19:55.020Z,19.90
2022-08-07T07:22:35.689Z,20.10
2022-08-07T07:26:32.102Z,20.20
2022-08-07T07:28:29.639Z,20.40
2022-08-07T07:31:12.932Z,20.50
2022-08-07T07:33:57.049Z,20.70
2022-08-07T07:36:32.748Z,20.90
2022-08-07T07:39:05.801Z,21.00
2022-08-07T07:41:50.768Z,21.00
2022-08-07T07:44:35.396Z,21.00
2022-08-07T07:47:13.994Z,21.10
2022-08-07T07:50:34.580Z,21.20
2022-08-07T07:52:44.424Z,21.30
2022-08-07T07:55:19.774Z,21.40
2022-08-07T07:57:54.015Z,21.60
2022-08-07T08:00:31.431Z,21.60
2022-08-07T08:03:16.579Z,21.60
2022-08-07T08:05:55.082Z,21.80
2022-08-07T08:08:35.112Z,21.80
2022-08-07T08:11:16.468Z,21.80
2022-08-07T08:14:02.054Z,21.90
2022-08-07T08:16:39.637Z,22.00
2022-08-07T08:20:15.752Z,22.20
2022-08-07T08:22:33.039Z,22.20
2022-08-07T08:25:27.082Z,22.30
2022-08-07T08:28:24.156Z,22.40
2022-08-07T08:31:15.739Z,22.50
2022-08-07T08:33:49.321Z,22.60
2022-08-07T08:36:25.649Z,22.60
2022-08-07T08:39:04.157Z,22.70
2022-08-07T08:41:58.708Z,22.70
2022-08-07T08:45:04.272Z,22.80
2022-08-07T08:47:52.670Z,22.90
2022-08-07T08:50:39.070Z,23.00
2022-08-07T08:53:42.770Z,23.00
2022-08-07T08:56:26.494Z,23.10
2022-08-07T08:59:13.518Z,23.20
2022-08-07T09:02:09.980Z,23.20
2022-08-07T09:04:58.451Z,23.30
2022-08-07T09:07:57.749Z,23.40
2022-08-07T09:10:47.191Z,23.30
2022-08-07T09:13:38.045Z,23.40
2022-08-07T09:16:39.541Z,23.50
2022-08-07T09:19:52.724Z,23.40
2022-08-07T09:24:33.578Z,23.40
2022-08-07T09:26:23.200Z,23.40
2022-08-07T09:29:24.428Z,23.60
2022-08-07T09:32:26.303Z,23.60
2022-08-07T09:36:05.063Z,23.70
2022-08-07T09:39:53.832Z,23.90
2022-08-07T09:42:45.784Z,23.90
2022-08-07T09:47:24.179Z,23.90
2022-08-07T09:50:00.663Z,24.00
2022-08-07T09:52:55.074Z,24.20
2022-08-07T09:56:02.712Z,24.20
2022-08-07T09:59:15.125Z,24.20
2022-08-07T10:02:36.780Z,24.30
2022-08-07T10:06:06.477Z,24.40
2022-08-07T10:09:59.100Z,24.50
2022-08-07T10:12:53.179Z,24.60
2022-08-07T10:16:00.170Z,24.70
2022-08-07T10:18:43.912Z,24.70
2022-08-07T10:21:51.132Z,24.70
2022-08-07T10:24:57.387Z,24.80
2022-08-07T10:27:51.403Z,24.90
2022-08-07T10:30:40.474Z,24.90
2022-08-07T10:34:06.938Z,25.00
2022-08-07T10:37:05.531Z,25.10
2022-08-07T10:40:39.718Z,25.30
2022-08-07T10:43:34.881Z,25.40
2022-08-07T10:46:15.799Z,25.30
2022-08-07T10:49:16.139Z,25.30
2022-08-07T10:52:13.689Z,25.30
2022-08-07T10:55:01.800Z,25.30
2022-08-07T10:58:10.870Z,25.30
2022-08-07T11:01:17.006Z,25.50
2022-08-07T11:04:32.158Z,25.60
2022-08-07T11:08:00.725Z,25.60
2022-08-07T11:10:49.988Z,25.70
2022-08-07T11:14:45.608Z,25.60
2022-08-07T11:17:01.745Z,25.70
2022-08-07T11:20:07.138Z,26.00
2022-08-07T11:23:30.266Z,26.90
2022-08-07T11:26:25.565Z,28.40
2022-08-07T11:29:13.145Z,30.10
2022-08-07T11:32:35.215Z,29.80
2022-08-07T11:35:31.227Z,30.60
2022-08-07T11:38:17.492Z,31.20
2022-08-07T11:40:56.395Z,30.70
2022-08-07T11:43:54.465Z,30.70
2022-08-07T11:46:44.360Z,31.00
2022-08-07T11:50:30.411Z,30.70
2022-08-07T11:53:26.925Z,30.20
2022-08-07T11:56:28.663Z,30.30
2022-08-07T12:00:12.227Z,29.90
2022-08-07T12:02:57.293Z,30.10
2022-08-07T12:05:59.466Z,30.10
2022-08-07T12:08:50.723Z,29.80
2022-08-07T12:11:35.634Z,30.00
2022-08-07T12:14:27.097Z,30.00
2022-08-07T12:17:06.839Z,29.70
2022-08-07T12:20:30.586Z,29.50
2022-08-07T12:23:17.991Z,28.90
2022-08-07T12:26:44.828Z,29.60
2022-08-07T12:29:38.618Z,29.90
2022-08-07T12:32:49.101Z,30.10
2022-08-07T12:35:23.975Z,30.40
2022-08-07T12:38:09.681Z,30.80
2022-08-07T12:40:47.688Z,30.30
2022-08-07T12:44:02.860Z,29.70
2022-08-07T12:46:46.234Z,29.60
2022-08-07T12:49:48.903Z,29.80
2022-08-07T12:53:17.416Z,29.70
2022-08-07T12:56:26.583Z,29.80
2022-08-07T12:58:59.809Z,29.90
2022-08-07T13:01:50.965Z,30.40
2022-08-07T13:06:03.893Z,30.50
2022-08-07T13:08:31.827Z,29.80
2022-08-07T13:12:02.289Z,30.00
2022-08-07T13:14:33.727Z,30.10
2022-08-07T13:17:40.882Z,30.30
2022-08-07T13:20:27.732Z,30.60
2022-08-07T13:23:59.866Z,30.60
2022-08-07T13:26:15.958Z,30.90
2022-08-07T13:29:04.196Z,31.00
2022-08-07T13:32:23.663Z,31.00
2022-08-07T13:35:08.913Z,31.40
2022-08-07T13:38:01.008Z,31.10
2022-08-07T13:40:54.396Z,31.10
2022-08-07T13:43:27.648Z,31.40
2022-08-07T13:46:10.797Z,31.30
2022-08-07T13:48:58.593Z,30.80
2022-08-07T13:52:05.549Z,30.70
2022-08-07T13:54:33.570Z,30.50
2022-08-07T13:57:14.698Z,30.90
2022-08-07T13:59:57.602Z,31.30
2022-08-07T14:02:39.766Z,31.50
2022-08-07T14:05:23.581Z,31.40
2022-08-07T14:08:00.769Z,31.50
2022-08-07T14:10:41.954Z,32.00
2022-08-07T14:13:20.872Z,32.20
2022-08-07T14:16:15.207Z,31.70
2022-08-07T14:18:56.943Z,31.80
2022-08-07T14:22:03.426Z,31.60
2022-08-07T14:24:41.993Z,31.60
2022-08-07T14:28:11.704Z,31.70
2022-08-07T14:30:12.281Z,31.90
2022-08-07T14:32:54.980Z,32.30
2022-08-07T14:35:43.037Z,32.20
2022-08-07T14:38:30.673Z,32.50
2022-08-07T14:41:12.226Z,32.50
2022-08-07T14:43:57.647Z,32.50
2022-08-07T14:46:33.804Z,32.20
2022-08-07T14:49:56.018Z,32.00
2022-08-07T14:52:10.375Z,32.30
2022-08-07T14:54:45.337Z,32.50
2022-08-07T14:57:19.312Z,32.50
2022-08-07T15:00:05.298Z,32.70
2022-08-07T15:02:39.212Z,32.80
2022-08-07T15:05:19.628Z,33.00
2022-08-07T15:08:12.624Z,33.40
2022-08-07T15:14:09.877Z,33.30
2022-08-07T15:16:54.853Z,33.30
2022-08-07T15:20:30.931Z,33.40
2022-08-07T15:22:33.394Z,33.40
2022-08-07T15:28:32.806Z,33.30
2022-08-07T15:31:05.374Z,32.80
2022-08-07T15:33:42.683Z,32.40
2022-08-07T15:36:14.820Z,32.10
2022-08-07T15:39:10.629Z,32.60
2022-08-07T15:42:45.976Z,32.60
2022-08-07T15:44:56.132Z,32.60
2022-08-07T15:47:59.958Z,32.50
2022-08-07T15:50:37.503Z,32.70
2022-08-07T15:53:52.090Z,32.80
2022-08-07T15:56:37.624Z,33.40
2022-08-07T15:59:17.499Z,33.40
2022-08-07T16:02:02.530Z,33.70
2022-08-07T16:04:36.732Z,33.90
2022-08-07T16:08:28.983Z,33.90
2022-08-07T16:10:15.573Z,33.80
2022-08-07T16:13:57.720Z,34.00
2022-08-07T16:18:02.216Z,34.30
2022-08-07T16:22:01.954Z,33.80
2022-08-07T16:24:34.663Z,33.70
2022-08-07T16:27:57.131Z,34.00
2022-08-07T16:30:34.805Z,33.40
2022-08-07T16:34:03.082Z,33.00
2022-08-07T16:36:20.287Z,32.90
2022-08-07T16:40:00.379Z,33.00
2022-08-07T16:43:11.810Z,33.20
2022-08-07T16:46:33.100Z,33.10
2022-08-07T16:50:27.341Z,33.10
2022-08-07T16:52:51.579Z,33.10
2022-08-07T16:56:02.984Z,33.10
2022-08-07T16:59:14.605Z,33.00
2022-08-07T17:02:03.162Z,33.00
2022-08-07T17:04:57.481Z,33.00
2022-08-07T17:07:52.046Z,33.20
2022-08-07T17:10:54.867Z,32.90
2022-08-07T17:14:19.501Z,32.90
2022-08-07T17:17:10.107Z,33.00
2022-08-07T17:20:02.106Z,33.10
2022-08-07T17:22:48.789Z,33.20
2022-08-07T17:25:47.847Z,33.10
2022-08-07T17:28:50.037Z,33.10
2022-08-07T17:31:44.337Z,33.10
2022-08-07T17:35:32.812Z,33.10
2022-08-07T17:38:05.522Z,32.90
2022-08-07T17:40:59.152Z,32.40
2022-08-07T17:44:33.689Z,32.60
2022-08-07T17:47:37.965Z,32.20
2022-08-07T17:54:54.420Z,31.30
2022-08-07T17:58:01.304Z,30.70
2022-08-07T18:00:48.650Z,30.30
2022-08-07T18:04:04.446Z,29.90
2022-08-07T18:06:39.146Z,29.60
2022-08-07T18:09:48.353Z,29.30
2022-08-07T18:12:28.650Z,29.00
2022-08-07T18:15:33.054Z,28.90
2022-08-07T18:19:02.400Z,28.40
2022-08-07T18:21:53.529Z,28.40
2022-08-07T18:24:47.190Z,28.20
2022-08-07T18:27:38.975Z,28.00
2022-08-07T18:30:32.637Z,27.90
2022-08-07T18:33:55.973Z,27.80
2022-08-07T18:37:09.581Z,27.50
2022-08-07T18:40:07.920Z,27.20
2022-08-07T18:43:50.339Z,27.10
2022-08-07T18:46:50.928Z,27.10
2022-08-07T18:50:19.460Z,27.10
2022-08-07T18:53:39.301Z,27.00
2022-08-07T18:56:58.342Z,26.80
2022-08-07T18:59:47.061Z,26.60
2022-08-07T19:02:45.322Z,26.40
2022-08-07T19:05:22.959Z,26.20
2022-08-07T19:08:11.343Z,26.10
2022-08-07T19:10:57.021Z,26.00
2022-08-07T19:13:46.215Z,25.80
2022-08-07T19:17:01.130Z,25.60
2022-08-07T19:19:57.207Z,25.40
2022-08-07T19:23:18.553Z,25.20
2022-08-07T19:26:24.111Z,25.20
2022-08-07T19:30:56.024Z,25.00
2022-08-07T19:32:08.274Z,24.90
2022-08-07T19:35:00.913Z,24.90
2022-08-07T19:37:56.623Z,24.70
2022-08-07T19:40:30.902Z,24.60
2022-08-07T19:43:21.539Z,24.40
2022-08-07T19:46:10.894Z,24.30
2022-08-07T19:48:53.980Z,24.20
2022-08-07T19:51:51.722Z,24.00
2022-08-07T19:54:33.036Z,23.90
2022-08-07T19:58:01.692Z,23.70
2022-08-07T20:00:28.261Z,23.60
2022-08-07T20:03:33.730Z,23.60
2022-08-07T20:06:04.433Z,23.40
2022-08-07T20:08:39.506Z,23.30
2022-08-07T20:11:34.161Z,23.20
2022-08-07T20:14:31.792Z,23.10
2022-08-07T20:17:06.617Z,23.00
2022-08-07T20:19:49.415Z,22.90
2022-08-07T20:22:34.509Z,22.90
2022-08-07T20:25:12.496Z,22.70
2022-08-07T20:27:58.467Z,22.60
2022-08-07T20:30:39.188Z,22.60
2022-08-07T20:33:36.887Z,22.50
2022-08-07T20:36:10.912Z,22.50
2022-08-07T20:38:59.600Z,22.40
2022-08-07T20:41:38.415Z,22.50
2022-08-07T20:44:13.419Z,22.30
2022-08-07T20:46:46.795Z,22.30
2022-08-07T20:50:00.112Z,22.20
2022-08-07T20:52:50.611Z,22.10
2022-08-07T20:55:25.435Z,22.10
2022-08-07T20:58:03.612Z,21.80
2022-08-07T21:00:47.073Z,21.90
2022-08-07T21:03:23.227Z,21.70
2022-08-07T21:06:12.387Z,21.60
2022-08-07T21:09:15.057Z,21.60
2022-08-07T21:11:53.042Z,21.70
2022-08-07T21:14:37.313Z,21.50
2022-08-07T21:18:04.019Z,21.40
2022-08-07T21:20:09.856Z,21.40
2022-08-07T21:22:44.787Z,21.40
2022-08-07T21:25:38.637Z,21.30
2022-08-07T21:28:48.262Z,21.30
2022-08-07T21:32:03.695Z,21.10
2022-08-07T21:34:34.885Z,21.10
2022-08-07T21:37:31.642Z,21.10
2022-08-07T21:40:28.466Z,20.90
2022-08-07T21:43:47.451Z,20.80
2022-08-07T21:46:31.621Z,20.80
2022-08-07T21:50:02.475Z,20.70
2022-08-07T21:52:58.898Z,20.50
2022-08-07T21:56:00.260Z,20.50
2022-08-07T21:58:45.813Z,20.40
2022-08-07T22:02:06.149Z,20.30
2022-08-07T22:04:24.869Z,20.30
2022-08-07T22:07:03.089Z,20.10
2022-08-07T22:09:55.188Z,20.00
2022-08-07T22:12:40.928Z,19.90
2022-08-07T22:16:43.511Z,19.80
2022-08-07T22:18:39.057Z,19.70
2022-08-07T22:21:19.334Z,19.60
2022-08-07T22:24:15.737Z,19.50
2022-08-07T22:27:07.597Z,19.40
2022-08-07T22:29:54.424Z,19.40
2022-08-07T22:32:53.443Z,19.40
2022-08-07T22:35:39.788Z,19.40
2022-08-07T22:38:31.840Z,19.40
2022-08-07T22:41:16.256Z,19.40
2022-08-07T22:43:58.779Z,19.20
2022-08-07T22:47:04.457Z,19.10
2022-08-07T22:50:08.207Z,19.10
2022-08-07T22:54:07.611Z,19.00
2022-08-07T22:57:07.291Z,19.00
2022-08-07T23:00:29.206Z,19.00
2022-08-07T23:03:28.336Z,19.10
2022-08-07T23:06:08.767Z,19.00
2022-08-07T23:10:05.191Z,18.90
2022-08-07T23:12:53.181Z,18.80
2022-08-07T23:16:44.668Z,18.90
2022-08-07T23:19:48.169Z,18.90
2022-08-07T23:22:29.933Z,18.90
2022-08-07T23:25:29.378Z,19.00
2022-08-07T23:28:28.985Z,18.90
2022-08-07T23:32:50.162Z,18.90
2022-08-07T23:35:05.554Z,18.80
2022-08-07T23:38:04.259Z,18.70
2022-08-07T23:40:56.359Z,18.60
2022-08-07T23:43:45.403Z,18.60
2022-08-07T23:46:56.375Z,18.50
2022-08-07T23:50:04.115Z,18.40
2022-08-07T23:52:58.356Z,18.30
2022-08-07T23:56:22.440Z,18.20
